sensor_id;sensor_type;location;lat;lon;timestamp;P1;durP1;ratioP1;P2;durP2;ratioP2
7883;SDS011;3987;51.458;7.238;2023-11-19T00:03:53;3.05;;;2.95;;
7883;SDS011;3987;51.458;7.238;2023-11-19T00:18:53;5.50;;;5.40;;
7883;SDS011;3987;51.458;7.238;2023-11-19T00:33:54;7.60;;;7.40;;
7883;SDS011;3987;51.458;7.238;2023-11-19T00:48:54;7.65;;;7.38;;
7883;SDS011;3987;51.458;7.238;2023-11-19T01:03:55;8.68;;;8.35;;
7883;SDS011;3987;51.458;7.238;2023-11-19T01:18:57;8.43;;;8.20;;
7883;SDS011;3987;51.458;7.238;2023-11-19T01:33:57;7.05;;;6.95;;
7883;SDS011;3987;51.458;7.238;2023-11-19T01:48:58;3.95;;;3.83;;
7883;SDS011;3987;51.458;7.238;2023-11-19T02:04:00;4.37;;;4.17;;
7883;SDS011;3987;51.458;7.238;2023-11-19T02:19:01;4.63;;;4.50;;
7883;SDS011;3987;51.458;7.238;2023-11-19T02:34:02;4.27;;;4.07;;
7883;SDS011;3987;51.458;7.238;2023-11-19T02:49:02;6.47;;;3.33;;
7883;SDS011;3987;51.458;7.238;2023-11-19T03:04:03;5.80;;;3.33;;
7883;SDS011;3987;51.458;7.238;2023-11-19T03:19:04;9.77;;;4.20;;
7883;SDS011;3987;51.458;7.238;2023-11-19T03:34:05;12.88;;;5.40;;
7883;SDS011;3987;51.458;7.238;2023-11-19T03:49:05;16.73;;;5.40;;
7883;SDS011;3987;51.458;7.238;2023-11-19T04:04:07;16.13;;;5.40;;
7883;SDS011;3987;51.458;7.238;2023-11-19T04:19:08;18.95;;;5.00;;
7883;SDS011;3987;51.458;7.238;2023-11-19T04:34:08;18.17;;;5.20;;
7883;SDS011;3987;51.458;7.238;2023-11-19T04:49:09;18.73;;;4.63;;
7883;SDS011;3987;51.458;7.238;2023-11-19T05:04:10;26.25;;;5.88;;
7883;SDS011;3987;51.458;7.238;2023-11-19T05:19:11;22.75;;;5.53;;
7883;SDS011;3987;51.458;7.238;2023-11-19T05:34:11;21.40;;;5.55;;
7883;SDS011;3987;51.458;7.238;2023-11-19T05:49:12;27.30;;;5.45;;
7883;SDS011;3987;51.458;7.238;2023-11-19T06:04:13;23.70;;;5.30;;
7883;SDS011;3987;51.458;7.238;2023-11-19T06:19:13;32.37;;;6.00;;
7883;SDS011;3987;51.458;7.238;2023-11-19T06:34:14;25.87;;;6.17;;
7883;SDS011;3987;51.458;7.238;2023-11-19T06:49:15;23.85;;;5.32;;
7883;SDS011;3987;51.458;7.238;2023-11-19T07:04:16;24.73;;;5.40;;
7883;SDS011;3987;51.458;7.238;2023-11-19T07:19:17;25.02;;;5.45;;
7883;SDS011;3987;51.458;7.238;2023-11-19T07:34:17;24.85;;;5.70;;
7883;SDS011;3987;51.458;7.238;2023-11-19T07:49:18;26.00;;;5.80;;
7883;SDS011;3987;51.458;7.238;2023-11-19T08:04:18;29.10;;;6.25;;
7883;SDS011;3987;51.458;7.238;2023-11-19T08:19:19;27.45;;;6.18;;
7883;SDS011;3987;51.458;7.238;2023-11-19T08:34:21;30.57;;;5.80;;
7883;SDS011;3987;51.458;7.238;2023-11-19T08:49:22;28.88;;;6.47;;
7883;SDS011;3987;51.458;7.238;2023-11-19T09:04:23;27.50;;;6.63;;
7883;SDS011;3987;51.458;7.238;2023-11-19T09:19:24;25.73;;;5.55;;
7883;SDS011;3987;51.458;7.238;2023-11-19T09:34:24;21.07;;;5.70;;
7883;SDS011;3987;51.458;7.238;2023-11-19T09:49:25;31.80;;;6.38;;
7883;SDS011;3987;51.458;7.238;2023-11-19T10:04:26;23.30;;;5.75;;
7883;SDS011;3987;51.458;7.238;2023-11-19T10:19:29;29.67;;;6.67;;
7883;SDS011;3987;51.458;7.238;2023-11-19T10:34:31;31.13;;;6.17;;
7883;SDS011;3987;51.458;7.238;2023-11-19T10:49:32;27.40;;;5.87;;
7883;SDS011;3987;51.458;7.238;2023-11-19T11:04:32;28.20;;;5.77;;
7883;SDS011;3987;51.458;7.238;2023-11-19T11:19:34;25.47;;;6.40;;
7883;SDS011;3987;51.458;7.238;2023-11-19T11:49:55;22.80;;;6.30;;
7883;SDS011;3987;51.458;7.238;2023-11-19T12:04:55;18.27;;;4.83;;
7883;SDS011;3987;51.458;7.238;2023-11-19T12:19:56;16.53;;;4.60;;
7883;SDS011;3987;51.458;7.238;2023-11-19T12:34:57;18.25;;;4.38;;
7883;SDS011;3987;51.458;7.238;2023-11-19T12:49:57;20.88;;;4.78;;
7883;SDS011;3987;51.458;7.238;2023-11-19T13:04:58;23.40;;;5.47;;
7883;SDS011;3987;51.458;7.238;2023-11-19T13:19:58;14.77;;;4.00;;
7883;SDS011;3987;51.458;7.238;2023-11-19T13:34:59;12.33;;;3.93;;
7883;SDS011;3987;51.458;7.238;2023-11-19T13:50:00;15.47;;;4.00;;
7883;SDS011;3987;51.458;7.238;2023-11-19T14:05:01;19.52;;;4.90;;
7883;SDS011;3987;51.458;7.238;2023-11-19T14:20:02;16.23;;;4.80;;
7883;SDS011;3987;51.458;7.238;2023-11-19T14:35:12;20.33;;;4.90;;
7883;SDS011;3987;51.458;7.238;2023-11-19T14:50:13;17.70;;;4.95;;
7883;SDS011;3987;51.458;7.238;2023-11-19T15:05:13;19.75;;;5.40;;
7883;SDS011;3987;51.458;7.238;2023-11-19T15:20:14;16.93;;;4.67;;
7883;SDS011;3987;51.458;7.238;2023-11-19T15:35:18;16.50;;;4.43;;
7883;SDS011;3987;51.458;7.238;2023-11-19T15:50:19;21.83;;;5.40;;
7883;SDS011;3987;51.458;7.238;2023-11-19T16:05:19;18.37;;;5.10;;
7883;SDS011;3987;51.458;7.238;2023-11-19T16:20:20;15.05;;;4.47;;
7883;SDS011;3987;51.458;7.238;2023-11-19T16:35:20;19.80;;;5.30;;
7883;SDS011;3987;51.458;7.238;2023-11-19T16:50:22;21.50;;;5.77;;
7883;SDS011;3987;51.458;7.238;2023-11-19T17:05:22;31.33;;;7.40;;
7883;SDS011;3987;51.458;7.238;2023-11-19T17:20:23;32.97;;;6.67;;
7883;SDS011;3987;51.458;7.238;2023-11-19T17:35:23;21.70;;;5.80;;
7883;SDS011;3987;51.458;7.238;2023-11-19T17:50:24;33.80;;;6.63;;
7883;SDS011;3987;51.458;7.238;2023-11-19T18:05:25;31.53;;;6.57;;
7883;SDS011;3987;51.458;7.238;2023-11-19T18:20:26;27.83;;;6.50;;
7883;SDS011;3987;51.458;7.238;2023-11-19T18:35:27;35.58;;;7.25;;
7883;SDS011;3987;51.458;7.238;2023-11-19T18:50:27;30.47;;;6.67;;
7883;SDS011;3987;51.458;7.238;2023-11-19T19:05:28;34.83;;;7.13;;
7883;SDS011;3987;51.458;7.238;2023-11-19T19:20:33;15.35;;;4.97;;
7883;SDS011;3987;51.458;7.238;2023-11-19T19:35:35;11.77;;;4.43;;
7883;SDS011;3987;51.458;7.238;2023-11-19T19:50:35;12.27;;;4.33;;
7883;SDS011;3987;51.458;7.238;2023-11-19T20:05:36;15.15;;;5.10;;
7883;SDS011;3987;51.458;7.238;2023-11-19T20:20:36;11.52;;;4.07;;
7883;SDS011;3987;51.458;7.238;2023-11-19T20:35:38;6.40;;;3.63;;
7883;SDS011;3987;51.458;7.238;2023-11-19T20:50:45;5.40;;;3.43;;
7883;SDS011;3987;51.458;7.238;2023-11-19T21:05:45;7.60;;;3.20;;
7883;SDS011;3987;51.458;7.238;2023-11-19T21:20:54;5.73;;;3.70;;
7883;SDS011;3987;51.458;7.238;2023-11-19T21:35:56;7.03;;;4.15;;
7883;SDS011;3987;51.458;7.238;2023-11-19T21:51:02;8.87;;;3.43;;
7883;SDS011;3987;51.458;7.238;2023-11-19T22:06:06;5.83;;;3.20;;
7883;SDS011;3987;51.458;7.238;2023-11-19T22:21:07;13.90;;;4.27;;
7883;SDS011;3987;51.458;7.238;2023-11-19T22:36:08;6.63;;;3.57;;
7883;SDS011;3987;51.458;7.238;2023-11-19T22:51:10;13.27;;;3.93;;
7883;SDS011;3987;51.458;7.238;2023-11-19T23:06:10;13.73;;;4.70;;
7883;SDS011;3987;51.458;7.238;2023-11-19T23:21:11;8.88;;;3.97;;
7883;SDS011;3987;51.458;7.238;2023-11-19T23:36:14;8.50;;;3.10;;
7883;SDS011;3987;51.458;7.238;2023-11-19T23:51:14;8.83;;;3.50;;
